createdAt,value
2022-09-02T00:02:06.099Z,17.39
2022-09-02T00:04:35.206Z,17.37
2022-09-02T00:07:02.804Z,17.36
2022-09-02T00:09:30.385Z,17.30
2022-09-02T00:11:58.153Z,17.25
2022-09-02T00:14:35.661Z,17.23
2022-09-02T00:17:04.351Z,17.29
2022-09-02T00:19:32.687Z,17.30
2022-09-02T00:22:03.331Z,17.29
2022-09-02T00:24:31.673Z,17.29
2022-09-02T00:26:59.257Z,17.27
2022-09-02T00:29:27.486Z,17.22
2022-09-02T00:31:55.388Z,17.23
2022-09-02T00:34:23.253Z,17.22
2022-09-02T00:36:50.941Z,17.22
2022-09-02T00:39:19.914Z,17.12
2022-09-02T00:41:47.561Z,17.00
2022-09-02T00:44:18.265Z,16.92
2022-09-02T00:46:46.552Z,16.92
2022-09-02T00:49:18.636Z,16.92
2022-09-02T00:51:52.365Z,16.92
2022-09-02T00:54:23.823Z,16.88
2022-09-02T00:56:53.862Z,16.86
2022-09-02T00:59:28.575Z,16.87
2022-09-02T01:01:56.411Z,16.91
2022-09-02T01:04:24.156Z,16.92
2022-09-02T01:06:52.274Z,16.92
2022-09-02T01:09:21.280Z,16.93
2022-09-02T01:11:55.207Z,16.91
2022-09-02T01:14:24.144Z,16.89
2022-09-02T01:16:59.944Z,16.91
2022-09-02T01:19:30.797Z,16.90
2022-09-02T01:21:59.926Z,16.89
2022-09-02T01:24:31.061Z,16.85
2022-09-02T01:27:00.369Z,16.76
2022-09-02T01:29:29.382Z,16.70
2022-09-02T01:31:57.418Z,16.68
2022-09-02T01:34:25.194Z,16.67
2022-09-02T01:36:53.175Z,16.68
2022-09-02T01:39:22.042Z,16.68
2022-09-02T01:41:49.603Z,16.68
2022-09-02T01:44:17.833Z,16.69
2022-09-02T01:46:46.386Z,16.66
2022-09-02T01:49:14.174Z,16.68
2022-09-02T01:51:42.038Z,16.64
2022-09-02T01:54:09.856Z,16.54
2022-09-02T01:56:39.111Z,16.45
2022-09-02T01:59:07.830Z,16.42
2022-09-02T02:01:35.733Z,16.45
2022-09-02T02:04:04.175Z,16.47
2022-09-02T02:06:32.033Z,16.42
2022-09-02T02:08:59.628Z,16.37
2022-09-02T02:11:27.467Z,16.33
2022-09-02T02:13:56.389Z,16.26
2022-09-02T02:16:24.085Z,16.23
2022-09-02T02:18:51.687Z,16.25
2022-09-02T02:21:19.235Z,16.30
2022-09-02T02:23:48.536Z,16.32
2022-09-02T02:26:16.357Z,16.33
2022-09-02T02:28:44.120Z,16.31
2022-09-02T02:31:13.321Z,16.27
2022-09-02T02:33:40.917Z,16.24
2022-09-02T02:36:09.897Z,16.24
2022-09-02T02:38:39.151Z,16.23
2022-09-02T02:41:07.394Z,16.16
2022-09-02T02:43:35.866Z,16.13
2022-09-02T02:46:04.315Z,16.14
2022-09-02T02:48:33.829Z,16.15
2022-09-02T02:51:01.442Z,16.14
2022-09-02T02:53:31.226Z,16.08
2022-09-02T02:55:59.374Z,16.04
2022-09-02T02:58:27.171Z,16.02
2022-09-02T03:00:54.832Z,16.04
2022-09-02T03:03:22.628Z,16.03
2022-09-02T03:05:52.553Z,16.03
2022-09-02T03:08:21.960Z,15.97
2022-09-02T03:10:54.447Z,15.95
2022-09-02T03:13:24.871Z,15.91
2022-09-02T03:15:52.889Z,15.86
2022-09-02T03:18:20.780Z,15.82
2022-09-02T03:20:48.319Z,15.77
2022-09-02T03:23:18.882Z,15.78
2022-09-02T03:25:47.295Z,15.76
2022-09-02T03:28:15.407Z,15.74
2022-09-02T03:30:43.483Z,15.73
2022-09-02T03:33:11.126Z,15.69
2022-09-02T03:35:41.468Z,15.66
2022-09-02T03:38:09.924Z,15.73
2022-09-02T03:40:40.125Z,15.79
2022-09-02T03:43:07.838Z,15.78
2022-09-02T03:45:35.673Z,15.73
2022-09-02T03:48:04.553Z,15.68
2022-09-02T03:50:36.441Z,15.67
2022-09-02T03:53:04.584Z,15.68
2022-09-02T03:55:32.232Z,15.68
2022-09-02T03:58:03.434Z,15.71
2022-09-02T04:00:34.146Z,15.75
2022-09-02T04:03:03.693Z,15.72
2022-09-02T04:05:32.045Z,15.71
2022-09-02T04:08:00.596Z,15.75
2022-09-02T04:10:28.267Z,15.79
2022-09-02T04:12:55.941Z,15.84
2022-09-02T04:15:25.211Z,15.79
2022-09-02T04:17:52.777Z,15.78
2022-09-02T04:20:20.486Z,15.79
2022-09-02T04:22:48.061Z,15.75
2022-09-02T04:25:15.648Z,15.73
2022-09-02T04:27:43.279Z,15.74
2022-09-02T04:30:11.740Z,15.73
2022-09-02T04:32:41.127Z,15.68
2022-09-02T04:35:09.007Z,15.56
2022-09-02T04:37:36.594Z,15.52
2022-09-02T04:40:05.351Z,15.53
2022-09-02T04:42:32.988Z,15.53
2022-09-02T04:45:00.782Z,15.54
2022-09-02T04:47:28.933Z,15.50
2022-09-02T04:49:58.450Z,15.41
2022-09-02T04:52:26.485Z,15.35
2022-09-02T04:54:54.075Z,15.33
2022-09-02T04:57:21.646Z,15.32
2022-09-02T04:59:49.821Z,15.33
2022-09-02T05:02:18.315Z,15.34
2022-09-02T05:04:46.207Z,15.36
2022-09-02T05:07:16.062Z,15.41
2022-09-02T05:09:44.168Z,15.45
2022-09-02T05:12:11.860Z,15.45
2022-09-02T05:14:39.628Z,15.50
2022-09-02T05:17:07.988Z,15.48
2022-09-02T05:19:35.778Z,15.43
2022-09-02T05:22:05.015Z,15.38
2022-09-02T05:24:34.162Z,15.39
2022-09-02T05:27:01.788Z,15.39
2022-09-02T05:29:29.593Z,15.43
2022-09-02T05:31:57.506Z,15.47
2022-09-02T05:34:25.261Z,15.51
2022-09-02T05:36:53.854Z,15.52
2022-09-02T05:39:21.681Z,15.52
2022-09-02T05:41:50.623Z,15.55
2022-09-02T05:44:18.247Z,15.54
2022-09-02T05:46:48.933Z,15.50
2022-09-02T05:49:18.299Z,15.51
2022-09-02T05:51:48.428Z,15.51
2022-09-02T05:54:18.773Z,15.56
2022-09-02T05:56:52.667Z,15.60
2022-09-02T05:59:21.245Z,15.64
2022-09-02T06:01:49.468Z,15.66
2022-09-02T06:04:17.298Z,15.69
2022-09-02T06:06:44.998Z,15.70
2022-09-02T06:09:14.521Z,15.77
2022-09-02T06:11:44.670Z,15.78
2022-09-02T06:14:15.055Z,15.77
2022-09-02T06:16:43.574Z,15.77
2022-09-02T06:19:11.272Z,15.80
2022-09-02T06:21:39.982Z,15.86
2022-09-02T06:24:08.728Z,15.90
2022-09-02T06:26:37.581Z,15.93
2022-09-02T06:29:06.624Z,15.94
2022-09-02T06:31:36.194Z,15.97
2022-09-02T06:34:04.799Z,16.00
2022-09-02T06:36:33.107Z,16.06
2022-09-02T06:39:01.891Z,16.10
2022-09-02T06:41:33.468Z,16.14
2022-09-02T06:44:03.535Z,16.20
2022-09-02T06:46:38.490Z,16.29
2022-09-02T06:49:07.827Z,16.39
2022-09-02T06:51:38.374Z,16.48
2022-09-02T06:54:07.211Z,16.55
2022-09-02T06:56:35.657Z,16.60
2022-09-02T06:59:04.196Z,16.67
2022-09-02T07:01:33.328Z,16.72
2022-09-02T07:04:16.399Z,16.80
2022-09-02T07:06:46.221Z,16.92
2022-09-02T07:09:16.482Z,17.04
2022-09-02T07:11:47.762Z,17.12
2022-09-02T07:14:16.029Z,17.25
2022-09-02T07:16:46.548Z,17.38
2022-09-02T07:19:20.494Z,17.54
2022-09-02T07:21:49.437Z,17.68
2022-09-02T07:24:18.467Z,17.82
2022-09-02T07:26:46.665Z,17.91
2022-09-02T07:29:14.701Z,18.04
2022-09-02T07:31:44.428Z,18.21
2022-09-02T07:34:14.990Z,18.37
2022-09-02T07:36:45.795Z,18.56
2022-09-02T07:39:14.895Z,18.72
2022-09-02T07:41:44.992Z,18.88
2022-09-02T07:44:13.597Z,19.04
2022-09-02T07:46:42.200Z,19.19
2022-09-02T07:49:15.595Z,19.33
2022-09-02T07:51:49.279Z,19.48
2022-09-02T07:54:19.159Z,19.68
2022-09-02T07:56:47.127Z,19.93
2022-09-02T07:59:14.713Z,20.24
2022-09-02T08:04:18.701Z,20.84
2022-09-02T08:06:47.696Z,21.23
2022-09-02T08:09:15.325Z,21.71
2022-09-02T08:11:46.521Z,22.17
2022-09-02T08:14:18.149Z,22.53
2022-09-02T08:16:46.801Z,22.91
2022-09-02T08:19:16.209Z,23.40
2022-09-02T08:21:43.812Z,23.74
2022-09-02T08:24:13.151Z,24.05
2022-09-02T08:26:40.838Z,24.38
2022-09-02T08:29:09.949Z,24.69
2022-09-02T08:31:38.190Z,25.03
2022-09-02T08:34:06.535Z,25.28
2022-09-02T08:36:34.259Z,25.39
2022-09-02T08:39:03.560Z,25.54
2022-09-02T08:41:40.102Z,25.72
2022-09-02T08:44:08.602Z,25.95
2022-09-02T08:46:36.724Z,26.16
2022-09-02T08:49:10.079Z,26.37
2022-09-02T08:51:42.810Z,26.51
2022-09-02T08:54:21.232Z,26.78
2022-09-02T08:56:51.826Z,27.05
2022-09-02T08:59:22.547Z,27.38
2022-09-02T09:01:57.772Z,27.67
2022-09-02T09:04:44.493Z,28.06
2022-09-02T09:07:25.607Z,28.43
2022-09-02T09:10:03.957Z,28.62
2022-09-02T09:12:49.464Z,28.87
2022-09-02T09:15:23.379Z,29.24
2022-09-02T09:17:58.163Z,29.43
2022-09-02T09:20:28.235Z,29.64
2022-09-02T09:22:57.932Z,29.72
2022-09-02T09:25:30.087Z,29.91
2022-09-02T09:27:59.647Z,30.31
2022-09-02T09:30:27.639Z,30.58
2022-09-02T09:32:57.447Z,30.88
2022-09-02T09:35:26.548Z,31.15
2022-09-02T09:37:55.230Z,31.13
2022-09-02T09:40:33.519Z,31.12
2022-09-02T09:43:15.956Z,31.09
2022-09-02T09:45:45.684Z,31.00
2022-09-02T09:48:24.003Z,30.66
2022-09-02T09:51:17.081Z,30.37
2022-09-02T09:53:45.289Z,30.06
2022-09-02T09:56:38.457Z,29.35
2022-09-02T09:59:31.630Z,28.89
2022-09-02T10:02:01.690Z,28.54
2022-09-02T10:04:49.764Z,28.42
2022-09-02T10:07:38.581Z,27.95
2022-09-02T10:10:18.386Z,27.41
2022-09-02T10:12:49.205Z,26.95
2022-09-02T10:15:30.150Z,26.66
2022-09-02T10:18:07.828Z,26.52
2022-09-02T10:21:04.844Z,26.46
2022-09-02T10:23:47.207Z,26.49
2022-09-02T10:26:27.383Z,26.40
2022-09-02T10:29:09.822Z,26.28
2022-09-02T10:31:46.472Z,26.24
2022-09-02T10:34:22.276Z,26.15
2022-09-02T10:37:11.143Z,26.05
2022-09-02T10:39:59.677Z,25.92
2022-09-02T10:42:36.227Z,25.85
2022-09-02T10:45:14.639Z,25.70
2022-09-02T10:47:47.615Z,25.74
2022-09-02T10:50:23.411Z,25.76
2022-09-02T10:53:03.747Z,25.73
2022-09-02T10:55:41.859Z,25.60
2022-09-02T10:58:18.181Z,25.57
2022-09-02T11:00:52.481Z,25.62
2022-09-02T11:03:29.306Z,25.72
2022-09-02T11:06:06.993Z,25.79
2022-09-02T11:08:41.530Z,25.78
2022-09-02T11:11:16.190Z,25.80
2022-09-02T11:13:58.871Z,25.76
2022-09-02T11:16:34.412Z,25.74
2022-09-02T11:19:14.110Z,25.68
2022-09-02T11:21:52.449Z,25.54
2022-09-02T11:24:28.474Z,25.53
2022-09-02T11:27:20.214Z,25.53
2022-09-02T11:30:03.661Z,25.44
2022-09-02T11:32:41.001Z,25.42
2022-09-02T11:35:16.534Z,25.37
2022-09-02T11:37:51.338Z,25.31
2022-09-02T11:40:36.795Z,25.25
2022-09-02T11:43:24.414Z,25.15
2022-09-02T11:46:15.306Z,25.02
2022-09-02T11:49:06.900Z,24.94
2022-09-02T11:52:02.005Z,24.96
2022-09-02T11:54:36.714Z,24.89
2022-09-02T11:57:07.254Z,24.79
2022-09-02T12:00:21.269Z,24.75
2022-09-02T12:02:53.400Z,24.65
2022-09-02T12:05:42.685Z,24.66
2022-09-02T12:08:15.587Z,24.65
2022-09-02T12:11:02.509Z,24.71
2022-09-02T12:13:37.318Z,24.70
2022-09-02T12:16:39.017Z,24.63
2022-09-02T12:19:30.507Z,24.66
2022-09-02T12:22:29.462Z,24.68
2022-09-02T12:25:00.264Z,24.68
2022-09-02T12:27:31.556Z,24.67
2022-09-02T12:30:00.653Z,24.66
2022-09-02T12:33:12.753Z,24.61
2022-09-02T12:35:57.787Z,24.46
2022-09-02T12:38:31.966Z,24.46
2022-09-02T12:41:30.471Z,24.45
2022-09-02T12:44:23.918Z,24.43
2022-09-02T12:47:02.753Z,24.41
2022-09-02T12:49:50.609Z,24.41
2022-09-02T12:52:42.798Z,24.43
2022-09-02T12:55:17.887Z,24.45
2022-09-02T12:57:51.894Z,24.45
2022-09-02T13:00:31.705Z,24.44
2022-09-02T13:03:13.382Z,24.38
2022-09-02T13:05:55.347Z,24.36
2022-09-02T13:08:56.595Z,24.31
2022-09-02T13:12:02.012Z,24.31
2022-09-02T13:15:08.797Z,24.31
2022-09-02T13:17:56.251Z,24.31
2022-09-02T13:21:02.590Z,24.33
2022-09-02T13:24:16.020Z,24.32
2022-09-02T13:27:11.581Z,24.30
2022-09-02T13:30:20.880Z,24.29
2022-09-02T13:33:02.015Z,24.26
2022-09-02T13:35:31.713Z,24.24
2022-09-02T13:38:03.176Z,24.25
2022-09-02T13:40:34.277Z,24.26
2022-09-02T13:43:06.631Z,24.24
2022-09-02T13:45:36.731Z,24.22
2022-09-02T13:48:10.821Z,24.21
2022-09-02T13:50:44.155Z,24.21
2022-09-02T13:53:45.549Z,24.22
2022-09-02T13:56:12.076Z,24.23
2022-09-02T13:58:47.285Z,24.17
2022-09-02T14:01:22.460Z,24.12
2022-09-02T14:03:54.745Z,24.09
2022-09-02T14:06:27.045Z,24.05
2022-09-02T14:09:00.041Z,24.04
2022-09-02T14:11:30.266Z,24.02
2022-09-02T14:13:59.169Z,24.00
2022-09-02T14:16:33.630Z,23.97
2022-09-02T14:19:11.739Z,23.93
2022-09-02T14:21:47.803Z,23.93
2022-09-02T14:24:18.195Z,23.93
2022-09-02T14:26:49.518Z,23.92
2022-09-02T14:29:20.652Z,23.91
2022-09-02T14:32:03.882Z,23.90
2022-09-02T14:34:39.738Z,23.90
2022-09-02T14:37:23.306Z,23.85
2022-09-02T14:40:12.256Z,23.81
2022-09-02T14:42:48.731Z,23.79
2022-09-02T14:45:27.597Z,23.73
2022-09-02T14:47:57.835Z,23.67
2022-09-02T14:50:30.518Z,23.60
2022-09-02T14:53:04.930Z,23.54
2022-09-02T14:55:48.856Z,23.49
2022-09-02T14:58:19.229Z,23.45
2022-09-02T15:00:55.766Z,23.40
2022-09-02T15:03:24.349Z,23.39
2022-09-02T15:05:54.203Z,23.37
2022-09-02T15:08:22.777Z,23.39
2022-09-02T15:10:51.027Z,23.41
2022-09-02T15:13:27.109Z,23.41
2022-09-02T15:16:03.486Z,23.39
2022-09-02T15:18:32.069Z,23.35
2022-09-02T15:21:10.983Z,23.31
2022-09-02T15:23:41.101Z,23.29
2022-09-02T15:26:09.690Z,23.27
2022-09-02T15:28:38.658Z,23.23
2022-09-02T15:31:06.649Z,23.19
2022-09-02T15:33:34.852Z,23.14
2022-09-02T15:36:21.411Z,23.09
2022-09-02T15:38:49.385Z,23.03
2022-09-02T15:41:19.800Z,23.00
2022-09-02T15:43:49.011Z,22.97
2022-09-02T15:46:24.748Z,22.96
2022-09-02T15:48:53.317Z,22.94
2022-09-02T15:51:24.714Z,22.91
2022-09-02T15:53:56.820Z,22.87
2022-09-02T15:56:27.001Z,22.87
2022-09-02T15:58:59.127Z,22.87
2022-09-02T16:01:28.449Z,22.87
2022-09-02T16:04:04.123Z,22.88
2022-09-02T16:06:41.786Z,22.88
2022-09-02T16:09:23.196Z,22.88
2022-09-02T16:12:00.938Z,22.86
2022-09-02T16:14:38.519Z,22.82
2022-09-02T16:17:12.291Z,22.77
2022-09-02T16:19:47.806Z,22.76
2022-09-02T16:22:29.523Z,22.75
2022-09-02T16:25:14.822Z,22.67
2022-09-02T16:27:58.456Z,22.59
2022-09-02T16:30:31.035Z,22.55
2022-09-02T16:33:04.690Z,22.53
2022-09-02T16:35:41.127Z,22.50
2022-09-02T16:38:19.991Z,22.47
2022-09-02T16:43:56.645Z,22.34
2022-09-02T16:46:25.590Z,22.29
2022-09-02T16:48:56.760Z,22.27
2022-09-02T16:54:21.181Z,22.21
2022-09-02T16:56:52.743Z,22.19
2022-09-02T16:59:20.274Z,22.18
2022-09-02T17:01:47.854Z,22.14
2022-09-02T17:04:15.446Z,22.12
2022-09-02T17:06:43.032Z,22.09
2022-09-02T17:09:10.864Z,22.03
2022-09-02T17:11:41.484Z,21.98
2022-09-02T17:14:11.112Z,21.94
2022-09-02T17:16:40.454Z,21.90
2022-09-02T17:19:08.695Z,21.87
2022-09-02T17:21:38.002Z,21.84
2022-09-02T17:24:07.602Z,21.79
2022-09-02T17:26:37.199Z,21.76
2022-09-02T17:29:17.301Z,21.73
2022-09-02T17:31:53.802Z,21.69
2022-09-02T17:34:21.648Z,21.65
2022-09-02T17:36:49.211Z,21.63
2022-09-02T17:39:18.489Z,21.58
2022-09-02T17:41:54.401Z,21.54
2022-09-02T17:44:25.182Z,21.49
2022-09-02T17:46:53.332Z,21.46
2022-09-02T17:49:21.540Z,21.42
2022-09-02T17:51:49.624Z,21.35
2022-09-02T17:54:17.212Z,21.28
2022-09-02T17:57:03.614Z,21.24
2022-09-02T17:59:43.283Z,21.19
2022-09-02T18:02:47.919Z,21.13
2022-09-02T18:05:29.001Z,21.08
2022-09-02T18:08:01.562Z,20.99
2022-09-02T18:10:34.428Z,20.95
2022-09-02T18:13:05.777Z,20.93
2022-09-02T18:15:41.862Z,20.91
2022-09-02T18:18:11.864Z,20.89
2022-09-02T18:20:43.469Z,20.85
2022-09-02T18:23:32.819Z,20.82
2022-09-02T18:26:11.668Z,20.80
2022-09-02T18:28:50.111Z,20.76
2022-09-02T18:31:35.922Z,20.74
2022-09-02T18:34:17.992Z,20.68
2022-09-02T18:36:55.593Z,20.64
2022-09-02T18:39:43.377Z,20.57
2022-09-02T18:42:23.910Z,20.54
2022-09-02T18:45:03.581Z,20.49
2022-09-02T18:47:38.007Z,20.41
2022-09-02T18:50:07.400Z,20.35
2022-09-02T18:52:37.310Z,20.31
2022-09-02T18:55:10.862Z,20.26
2022-09-02T18:57:45.123Z,20.25
2022-09-02T19:00:16.041Z,20.22
2022-09-02T19:02:50.075Z,20.17
2022-09-02T19:05:20.555Z,20.15
2022-09-02T19:08:12.242Z,20.16
2022-09-02T19:10:40.629Z,20.15
2022-09-02T19:13:08.382Z,20.14
2022-09-02T19:15:36.065Z,20.12
2022-09-02T19:18:06.270Z,20.13
2022-09-02T19:20:35.368Z,20.16
2022-09-02T19:23:06.889Z,20.17
2022-09-02T19:25:36.491Z,20.15
2022-09-02T19:28:06.152Z,20.12
2022-09-02T19:30:37.305Z,20.06
2022-09-02T19:33:09.164Z,20.03
2022-09-02T19:35:38.228Z,20.00
2022-09-02T19:38:06.014Z,19.97
2022-09-02T19:40:36.399Z,19.98
2022-09-02T19:43:07.493Z,19.96
2022-09-02T19:45:46.717Z,19.95
2022-09-02T19:48:16.565Z,19.99
2022-09-02T19:50:46.013Z,19.98
2022-09-02T19:53:19.155Z,19.98
2022-09-02T19:55:46.919Z,19.94
2022-09-02T19:58:14.627Z,19.91
2022-09-02T20:00:43.350Z,19.84
2022-09-02T20:03:11.380Z,19.81
2022-09-02T20:05:41.050Z,19.83
2022-09-02T20:08:09.724Z,19.85
2022-09-02T20:10:37.535Z,19.83
2022-09-02T20:13:05.594Z,19.85
2022-09-02T20:15:37.552Z,19.85
2022-09-02T20:18:11.529Z,19.83
2022-09-02T20:20:44.315Z,19.85
2022-09-02T20:23:17.035Z,19.83
2022-09-02T20:25:57.407Z,19.83
2022-09-02T20:28:26.520Z,19.83
2022-09-02T20:31:05.011Z,19.82
2022-09-02T20:33:41.060Z,19.79
2022-09-02T20:36:18.678Z,19.74
2022-09-02T20:39:18.171Z,19.70
2022-09-02T20:41:59.215Z,19.69
2022-09-02T20:44:43.246Z,19.70
2022-09-02T20:47:37.183Z,19.65
2022-09-02T20:50:22.342Z,19.64
2022-09-02T20:53:06.914Z,19.61
2022-09-02T20:55:41.365Z,19.54
2022-09-02T20:58:18.008Z,19.47
2022-09-02T21:00:54.571Z,19.37
2022-09-02T21:03:25.850Z,19.33
2022-09-02T21:05:58.265Z,19.30
2022-09-02T21:08:31.004Z,19.31
2022-09-02T21:11:01.233Z,19.26
2022-09-02T21:13:41.557Z,19.23
2022-09-02T21:16:19.497Z,19.20
2022-09-02T21:18:53.313Z,19.19
2022-09-02T21:21:27.569Z,19.17
2022-09-02T21:24:02.453Z,19.16
2022-09-02T21:26:39.996Z,19.12
2022-09-02T21:29:16.227Z,19.08
2022-09-02T21:31:49.627Z,19.07
2022-09-02T21:34:24.402Z,19.05
2022-09-02T21:36:55.405Z,19.02
2022-09-02T21:39:28.229Z,19.01
2022-09-02T21:42:07.444Z,18.97
2022-09-02T21:44:45.720Z,18.96
2022-09-02T21:47:22.995Z,18.96
2022-09-02T21:50:04.349Z,18.95
2022-09-02T21:52:45.632Z,18.92
2022-09-02T21:55:26.604Z,18.90
2022-09-02T21:58:09.843Z,18.89
2022-09-02T22:00:39.123Z,18.85
2022-09-02T22:03:16.335Z,18.84
2022-09-02T22:05:53.279Z,18.83
2022-09-02T22:08:28.905Z,18.78
2022-09-02T22:11:09.557Z,18.73
2022-09-02T22:13:41.876Z,18.69
2022-09-02T22:16:16.254Z,18.70
2022-09-02T22:18:55.330Z,18.64
2022-09-02T22:21:39.673Z,18.60
2022-09-02T22:24:08.280Z,18.54
2022-09-02T22:26:41.065Z,18.49
2022-09-02T22:29:17.298Z,18.46
2022-09-02T22:31:48.158Z,18.43
2022-09-02T22:34:18.620Z,18.38
2022-09-02T22:36:56.348Z,18.35
2022-09-02T22:39:33.747Z,18.31
2022-09-02T22:42:09.937Z,18.25
2022-09-02T22:45:00.657Z,18.22
2022-09-02T22:47:48.238Z,18.18
2022-09-02T22:50:39.404Z,18.13
2022-09-02T22:53:06.938Z,18.09
2022-09-02T22:55:47.006Z,18.06
2022-09-02T22:58:37.357Z,18.04
2022-09-02T23:01:15.256Z,18.04
2022-09-02T23:03:51.334Z,18.03
2022-09-02T23:24:05.719Z,17.91
2022-09-02T23:26:41.031Z,17.88
2022-09-02T23:29:18.821Z,17.88
2022-09-02T23:32:00.430Z,17.90
2022-09-02T23:34:44.123Z,17.93
2022-09-02T23:37:21.041Z,17.96
2022-09-02T23:39:59.544Z,17.96
2022-09-02T23:42:27.833Z,17.95
2022-09-02T23:45:08.283Z,17.96
2022-09-02T23:47:50.818Z,17.94
2022-09-02T23:50:27.578Z,17.92
2022-09-02T23:53:06.670Z,17.88
2022-09-02T23:55:48.728Z,17.84
2022-09-02T23:58:33.871Z,17.80
